createdAt,value
2023-03-06T02:06:15.102Z,0.62
2023-03-06T02:07:15.127Z,0.63
2023-03-06T02:09:15.205Z,0.61
2023-03-06T02:10:15.193Z,0.62
2023-03-06T02:11:15.248Z,0.61
2023-03-06T02:12:15.163Z,0.63
2023-03-06T02:13:15.173Z,0.63
2023-03-06T02:14:15.241Z,0.61
2023-03-06T02:15:15.261Z,0.62
2023-03-06T02:16:15.253Z,0.61
2023-03-06T02:17:15.274Z,0.62
2023-03-06T02:18:15.299Z,0.61
2023-03-06T02:19:15.334Z,0.63
2023-03-06T02:20:15.427Z,0.62
2023-03-06T02:21:15.441Z,0.63
2023-03-06T02:22:15.513Z,0.63
2023-03-06T02:23:15.576Z,0.63
2023-03-06T02:24:15.616Z,0.64
2023-03-06T02:25:15.727Z,0.63
2023-03-06T02:26:15.770Z,0.63
2023-03-06T02:27:15.802Z,0.63
2023-03-06T02:28:15.897Z,0.63
2023-03-06T02:29:15.911Z,0.63
2023-03-06T02:30:15.960Z,0.62
2023-03-06T02:31:16.082Z,0.64
2023-03-06T02:32:16.115Z,0.62
2023-03-06T02:33:16.115Z,0.62
2023-03-06T02:34:16.166Z,0.63
2023-03-06T02:35:16.180Z,0.63
2023-03-06T02:36:16.253Z,0.63
2023-03-06T02:37:16.275Z,0.64
2023-03-06T02:38:16.296Z,0.63
2023-03-06T02:39:16.356Z,0.64
2023-03-06T02:40:16.386Z,0.64
2023-03-06T02:41:16.418Z,0.63
2023-03-06T02:42:16.423Z,0.63
2023-03-06T02:43:16.476Z,0.64
2023-03-06T02:44:16.470Z,0.64
2023-03-06T02:45:16.468Z,0.64
2023-03-06T02:46:16.521Z,0.64
2023-03-06T02:47:16.551Z,0.64
2023-03-06T02:48:16.573Z,0.64
2023-03-06T02:49:16.539Z,0.63
2023-03-06T02:50:16.579Z,0.64
2023-03-06T02:51:16.654Z,0.65
2023-03-06T02:52:16.661Z,0.64
2023-03-06T02:53:16.697Z,0.64
2023-03-06T02:54:16.725Z,0.64
2023-03-06T02:55:16.727Z,0.65
2023-03-06T02:56:16.712Z,0.65
2023-03-06T02:58:16.760Z,0.64
2023-03-06T02:59:16.768Z,0.64
2023-03-06T03:00:16.764Z,0.65
2023-03-06T03:01:16.817Z,0.65
2023-03-06T03:02:16.772Z,0.65
2023-03-06T03:03:16.837Z,0.65
2023-03-06T03:42:17.894Z,0.65
2023-03-06T03:43:18.003Z,0.65
2023-03-06T03:44:18.068Z,0.64
2023-03-06T03:45:18.124Z,0.64
2023-03-06T03:46:18.119Z,0.64
2023-03-06T03:47:18.145Z,0.64
2023-03-06T03:48:18.212Z,0.64
2023-03-06T03:49:18.252Z,0.65
2023-03-06T03:50:18.295Z,0.65
2023-03-06T03:51:18.310Z,0.65
2023-03-06T03:52:18.361Z,0.65
2023-03-06T03:53:18.447Z,0.65
2023-03-06T03:54:18.470Z,0.64
2023-03-06T03:55:18.541Z,0.65
2023-03-06T03:56:18.596Z,0.64
2023-03-06T03:57:18.713Z,0.64
2023-03-06T03:58:18.729Z,0.64
2023-03-06T03:59:18.765Z,0.65
2023-03-06T04:00:18.810Z,0.65
2023-03-06T04:01:18.873Z,0.65
2023-03-06T04:02:18.983Z,0.65
2023-03-06T04:03:19.069Z,0.63
2023-03-06T04:04:19.045Z,0.63
2023-03-06T04:05:19.206Z,0.64
2023-03-06T04:06:19.169Z,0.64
2023-03-06T04:07:19.236Z,0.63
2023-03-06T04:08:19.302Z,0.64
2023-03-06T04:09:19.371Z,0.64
2023-03-06T04:10:19.458Z,0.64
2023-03-06T04:11:19.476Z,0.63
2023-03-06T04:12:19.544Z,0.63
2023-03-06T04:13:19.638Z,0.64
2023-03-06T04:14:19.677Z,0.64
2023-03-06T04:15:19.719Z,0.64
2023-03-06T04:16:19.830Z,0.64
2023-03-06T04:17:19.823Z,0.64
2023-03-06T04:18:19.896Z,0.64
2023-03-06T04:19:19.936Z,0.63
2023-03-06T04:20:20.010Z,0.64
2023-03-06T04:21:20.090Z,0.64
2023-03-06T04:22:20.165Z,0.63
2023-03-06T04:23:20.186Z,0.64
2023-03-06T05:03:21.511Z,0.61
2023-03-06T05:10:21.828Z,0.61
2023-03-06T05:11:21.809Z,0.61
2023-03-06T05:12:21.828Z,0.60
2023-03-06T05:13:21.847Z,0.60
2023-03-06T05:14:21.928Z,0.61
2023-03-06T05:15:22.016Z,0.61
2023-03-06T05:25:22.495Z,0.60
2023-03-06T05:26:22.505Z,0.60
2023-03-06T05:27:22.524Z,0.60
2023-03-06T05:28:22.550Z,0.61
2023-03-06T05:29:22.529Z,0.61
2023-03-06T05:30:22.522Z,0.60
2023-03-06T05:31:22.542Z,0.60
2023-03-06T05:32:22.563Z,0.60
2023-03-06T05:33:22.589Z,0.60
2023-03-06T05:34:22.693Z,0.60
2023-03-06T05:35:22.843Z,0.61
2023-03-06T05:36:22.897Z,0.60
2023-03-06T05:37:22.986Z,0.60
2023-03-06T05:38:23.019Z,0.60
2023-03-06T05:39:22.984Z,0.60
2023-03-06T05:40:23.034Z,0.60
2023-03-06T05:41:22.973Z,0.60
2023-03-06T05:42:22.970Z,0.60
2023-03-06T05:43:23.082Z,0.60
2023-03-06T05:44:23.116Z,0.59
2023-03-06T05:45:23.219Z,0.61
2023-03-06T05:46:23.337Z,0.60
2023-03-06T05:47:23.318Z,0.60
2023-03-06T05:48:23.304Z,0.60
2023-03-06T05:49:23.293Z,0.60
2023-03-06T05:50:23.293Z,0.60
2023-03-06T05:51:23.300Z,0.60
2023-03-06T05:52:23.408Z,0.60
2023-03-06T05:53:23.457Z,0.60
2023-03-06T05:54:23.470Z,0.59
2023-03-06T05:55:23.449Z,0.59
2023-03-06T05:56:23.423Z,0.61
2023-03-06T05:57:23.436Z,0.60
2023-03-06T05:58:23.451Z,0.60
2023-03-06T05:59:23.489Z,0.59
2023-03-06T06:00:30.867Z,0.60
2023-03-06T06:02:23.610Z,0.60
2023-03-06T06:03:23.598Z,0.60
2023-03-06T06:04:23.574Z,0.60
2023-03-06T06:05:23.542Z,0.60
2023-03-06T06:06:23.582Z,0.59
2023-03-06T06:07:23.597Z,0.59
2023-03-06T06:08:23.551Z,0.59
2023-03-06T06:09:23.607Z,0.60
2023-03-06T06:10:23.578Z,0.59
2023-03-06T06:11:23.601Z,0.59
2023-03-06T06:12:23.579Z,0.59
2023-03-06T06:13:23.603Z,0.59
2023-03-06T06:14:23.539Z,0.59
2023-03-06T06:15:23.548Z,0.59
2023-03-06T06:16:23.523Z,0.58
2023-03-06T06:17:23.499Z,0.59
2023-03-06T06:18:23.583Z,0.59
2023-03-06T06:19:23.517Z,0.59
2023-03-06T06:20:23.482Z,0.59
2023-03-06T06:21:23.479Z,0.59
2023-03-06T06:22:23.449Z,0.59
2023-03-06T06:23:23.416Z,0.58
2023-03-06T06:24:23.443Z,0.59
2023-03-06T06:25:23.402Z,0.59
2023-03-06T06:26:23.412Z,0.59
2023-03-06T06:27:23.423Z,0.60
2023-03-06T06:28:23.390Z,0.60
2023-03-06T06:29:23.403Z,0.61
2023-03-06T06:30:23.393Z,0.62
2023-03-06T06:31:23.440Z,0.61
2023-03-06T06:32:23.433Z,0.62
2023-03-06T06:33:23.364Z,0.64
2023-03-06T06:34:23.376Z,0.64
2023-03-06T06:35:23.440Z,0.61
2023-03-06T06:36:23.362Z,0.61
2023-03-06T06:37:23.384Z,0.57
2023-03-06T06:38:23.340Z,0.55
2023-03-06T06:39:23.344Z,0.58
2023-03-06T06:40:23.367Z,0.52
2023-03-06T06:42:33.318Z,0.50
2023-03-06T06:43:24.311Z,0.50
2023-03-06T06:44:23.333Z,0.48
2023-03-06T06:45:23.316Z,0.44
2023-03-06T06:47:19.256Z,0.46
2023-03-06T06:47:25.649Z,0.50
2023-03-06T06:48:23.542Z,0.45
2023-03-06T06:49:23.605Z,0.41
2023-03-06T06:50:23.584Z,0.41
2023-03-06T06:51:23.595Z,0.43
2023-03-06T06:52:23.666Z,0.41
2023-03-06T06:53:23.619Z,0.50
2023-03-06T06:54:23.684Z,0.50
2023-03-06T06:55:23.728Z,0.51
2023-03-06T06:56:23.894Z,0.51
2023-03-06T06:57:23.848Z,0.51
2023-03-06T06:58:23.851Z,0.53
2023-03-06T06:59:23.999Z,0.53
2023-03-06T07:00:24.017Z,0.55
2023-03-06T07:01:24.036Z,0.55
2023-03-06T07:02:23.978Z,0.57
2023-03-06T07:03:23.979Z,0.59
2023-03-06T07:04:24.049Z,0.60
2023-03-06T07:05:24.067Z,0.61
2023-03-06T07:06:24.015Z,0.62
2023-03-06T07:07:25.492Z,0.63
2023-03-06T07:08:24.061Z,0.65
2023-03-06T07:09:24.188Z,0.67
2023-03-06T07:10:24.247Z,0.69
2023-03-06T07:11:24.405Z,0.69
2023-03-06T07:12:24.284Z,0.71
2023-03-06T07:13:24.256Z,0.73
2023-03-06T07:14:24.298Z,0.74
2023-03-06T07:15:24.327Z,0.73
2023-03-06T07:16:24.424Z,0.76
2023-03-06T07:17:24.551Z,0.78
2023-03-06T07:18:24.544Z,0.78
2023-03-06T07:19:24.584Z,0.79
2023-03-06T07:20:24.699Z,0.80
2023-03-06T07:21:24.726Z,0.81
2023-03-06T07:22:24.798Z,0.82
2023-03-06T07:23:24.803Z,0.81
2023-03-06T07:24:24.853Z,0.82
2023-03-06T07:25:24.903Z,0.84
2023-03-06T07:26:25.024Z,0.85
2023-03-06T07:27:25.120Z,0.86
2023-03-06T07:28:25.145Z,0.87
2023-03-06T07:29:25.190Z,0.86
2023-03-06T07:30:25.287Z,0.90
2023-03-06T07:31:25.384Z,0.90
2023-03-06T07:32:25.572Z,0.94
2023-03-06T07:33:25.481Z,0.93
2023-03-06T07:34:25.490Z,0.94
2023-03-06T07:35:25.547Z,0.94
2023-03-06T07:36:25.550Z,0.92
2023-03-06T07:37:25.940Z,1.01
2023-03-06T07:38:25.666Z,1.01
2023-03-06T07:39:26.465Z,1.02
2023-03-06T07:40:25.787Z,1.05
2023-03-06T07:41:25.942Z,1.00
2023-03-06T07:42:25.845Z,0.76
2023-03-06T07:43:25.915Z,0.75
2023-03-06T07:44:25.936Z,0.75
2023-03-06T07:45:25.898Z,0.68
2023-03-06T07:46:26.001Z,0.75
2023-03-06T07:47:26.413Z,0.66
2023-03-06T07:48:26.043Z,0.63
2023-03-06T07:49:26.126Z,0.54
2023-03-06T07:50:26.224Z,0.51
2023-03-06T07:51:26.171Z,0.51
2023-03-06T07:52:26.397Z,0.50
2023-03-06T07:53:26.153Z,0.49
2023-03-06T07:54:26.149Z,0.52
2023-03-06T07:55:26.147Z,0.52
2023-03-06T07:56:26.217Z,0.50
2023-03-06T07:57:26.422Z,0.51
2023-03-06T07:58:26.227Z,0.50
2023-03-06T07:59:26.286Z,0.50
2023-03-06T08:00:26.446Z,0.51
2023-03-06T08:01:26.286Z,0.50
2023-03-06T08:02:26.397Z,0.50
2023-03-06T08:03:26.403Z,0.50
2023-03-06T08:04:28.327Z,0.52
2023-03-06T08:05:26.520Z,0.51
2023-03-06T08:06:26.602Z,0.50
2023-03-06T08:07:26.593Z,0.50
2023-03-06T08:08:26.649Z,0.50
2023-03-06T08:09:26.658Z,0.50
2023-03-06T08:10:26.765Z,0.50
2023-03-06T08:11:26.729Z,0.56
2023-03-06T08:12:26.936Z,0.55
2023-03-06T08:13:26.837Z,0.52
2023-03-06T08:17:27.429Z,0.53
2023-03-06T08:18:27.018Z,0.53
2023-03-06T08:19:27.890Z,0.53
2023-03-06T08:20:27.148Z,0.51
2023-03-06T08:21:27.153Z,0.51
2023-03-06T08:22:27.276Z,0.51
2023-03-06T08:23:27.232Z,0.52
2023-03-06T08:24:27.267Z,0.54
2023-03-06T08:25:27.316Z,0.53
2023-03-06T08:26:27.424Z,0.53
2023-03-06T08:28:27.471Z,0.53
2023-03-06T08:29:27.475Z,0.53
2023-03-06T08:30:27.511Z,0.55
2023-03-06T08:31:27.640Z,0.57
2023-03-06T08:32:28.091Z,0.60
2023-03-06T08:33:27.692Z,0.57
2023-03-06T08:34:27.702Z,0.54
2023-03-06T08:35:27.842Z,0.53
2023-03-06T08:36:27.805Z,0.52
2023-03-06T08:37:27.971Z,0.52
2023-03-06T08:38:27.882Z,0.52
2023-03-06T08:39:27.945Z,0.55
2023-03-06T08:40:27.970Z,0.56
2023-03-06T08:41:28.016Z,0.57
2023-03-06T08:42:28.407Z,0.63
2023-03-06T08:43:28.083Z,0.78
2023-03-06T08:44:28.128Z,0.78
2023-03-06T08:45:28.213Z,0.79
2023-03-06T08:46:28.206Z,0.84
2023-03-06T08:47:28.404Z,0.85
2023-03-06T08:48:28.257Z,0.89
2023-03-06T08:49:28.255Z,0.96
2023-03-06T08:50:28.268Z,0.96
2023-03-06T08:51:28.280Z,0.97
2023-03-06T08:52:28.450Z,1.00
2023-03-06T08:53:42.237Z,1.02
2023-03-06T08:55:28.270Z,1.03
2023-03-06T08:56:28.277Z,1.06
2023-03-06T08:57:28.254Z,1.08
2023-03-06T08:58:28.272Z,1.12
2023-03-06T08:59:28.231Z,1.11
2023-03-06T09:00:28.282Z,1.15
2023-03-06T09:02:28.224Z,1.18
2023-03-06T09:03:28.264Z,1.15
2023-03-06T09:04:28.314Z,1.16
2023-03-06T09:05:28.369Z,1.19
2023-03-06T09:06:28.424Z,1.20
2023-03-06T09:07:28.481Z,1.23
2023-03-06T09:08:28.535Z,1.21
2023-03-06T09:09:28.558Z,1.15
2023-03-06T09:10:28.655Z,1.18
2023-03-06T09:11:28.729Z,1.24
2023-03-06T09:12:30.795Z,1.19
2023-03-06T09:13:28.938Z,1.14
2023-03-06T09:14:28.757Z,1.11
2023-03-06T09:15:28.753Z,1.12
2023-03-06T09:16:28.731Z,1.16
2023-03-06T09:17:28.789Z,1.12
2023-03-06T09:18:28.917Z,1.09
2023-03-06T09:19:28.686Z,1.13
2023-03-06T09:20:28.692Z,0.94
2023-03-06T09:21:28.730Z,1.05
2023-03-06T09:22:28.710Z,1.09
2023-03-06T09:23:28.903Z,1.08
2023-03-06T09:24:28.770Z,1.04
2023-03-06T09:25:28.672Z,1.09
2023-03-06T09:26:43.411Z,1.07
2023-03-06T09:27:29.643Z,1.07
2023-03-06T09:28:28.704Z,1.07
2023-03-06T09:29:28.654Z,0.88
2023-03-06T09:30:28.652Z,0.90
2023-03-06T09:31:28.603Z,1.02
2023-03-06T09:32:28.713Z,0.99
2023-03-06T09:33:28.920Z,0.95
2023-03-06T09:34:28.619Z,0.98
2023-03-06T09:35:29.703Z,1.06
2023-03-06T09:36:28.600Z,1.07
2023-03-06T09:37:28.601Z,1.05
2023-03-06T09:38:29.071Z,1.05
2023-03-06T09:39:29.064Z,1.06
2023-03-06T09:40:28.718Z,1.08
2023-03-06T09:41:28.795Z,1.03
2023-03-06T09:42:28.799Z,1.04
2023-03-06T09:43:28.886Z,1.10
2023-03-06T09:44:28.964Z,1.08
2023-03-06T09:45:28.960Z,1.05
2023-03-06T09:46:29.076Z,1.05
2023-03-06T09:47:29.072Z,1.04
2023-03-06T09:48:29.126Z,1.07
2023-03-06T09:49:29.143Z,1.06
2023-03-06T09:50:29.216Z,1.09
2023-03-06T09:51:29.211Z,1.04
2023-03-06T09:52:29.275Z,0.92
2023-03-06T09:53:29.314Z,0.97
2023-03-06T09:54:29.331Z,1.03
2023-03-06T09:55:29.405Z,1.04
2023-03-06T09:56:29.390Z,1.08
2023-03-06T09:57:29.426Z,1.11
2023-03-06T09:58:29.498Z,1.13
2023-03-06T09:59:29.463Z,1.14
2023-03-06T10:00:29.522Z,1.17
2023-03-06T10:01:29.528Z,1.20
2023-03-06T10:02:29.650Z,1.23
2023-03-06T10:03:29.698Z,1.29
2023-03-06T10:04:29.698Z,1.31
2023-03-06T10:05:29.769Z,1.33
2023-03-06T10:06:29.788Z,1.39
2023-03-06T10:07:29.721Z,1.44
2023-03-06T10:08:29.744Z,1.45
2023-03-06T10:09:29.744Z,1.53
2023-03-06T10:10:29.816Z,1.59
2023-03-06T10:11:29.806Z,1.65
2023-03-06T10:12:29.799Z,1.65
2023-03-06T10:13:29.877Z,1.69
2023-03-06T10:14:29.871Z,1.76
2023-03-06T10:15:29.938Z,1.79
2023-03-06T10:16:29.835Z,1.80
2023-03-06T10:17:29.860Z,1.90
2023-03-06T10:18:30.223Z,1.87
2023-03-06T10:19:30.035Z,1.93
2023-03-06T10:20:29.968Z,1.94
2023-03-06T10:21:30.014Z,1.96
2023-03-06T10:22:30.069Z,1.97
2023-03-06T10:23:30.118Z,2.09
2023-03-06T10:24:30.198Z,2.07
2023-03-06T10:25:30.232Z,2.14
2023-03-06T10:26:30.464Z,2.20
2023-03-06T10:27:30.358Z,2.21
2023-03-06T10:28:30.461Z,2.24
2023-03-06T10:29:30.547Z,2.25
2023-03-06T10:30:30.547Z,2.26
2023-03-06T10:31:30.631Z,2.35
2023-03-06T10:32:42.700Z,2.39
2023-03-06T10:33:31.653Z,2.40
2023-03-06T10:34:30.639Z,2.40
2023-03-06T10:35:31.015Z,2.43
2023-03-06T10:36:30.654Z,2.45
2023-03-06T10:37:32.533Z,2.51
2023-03-06T10:38:30.604Z,2.50
2023-03-06T10:39:30.599Z,2.53
2023-03-06T10:40:30.616Z,2.50
2023-03-06T10:41:30.641Z,2.54
2023-03-06T10:42:30.693Z,2.58
2023-03-06T10:43:30.858Z,2.60
2023-03-06T10:44:30.795Z,2.60
2023-03-06T10:45:40.579Z,2.51
2023-03-06T10:46:31.912Z,2.52
2023-03-06T10:47:30.865Z,2.55
2023-03-06T10:48:30.871Z,3.54
2023-03-06T10:49:30.990Z,4.48
2023-03-06T10:50:31.273Z,6.60
2023-03-06T10:51:30.816Z,6.38
2023-03-06T10:52:30.823Z,6.40
2023-03-06T10:53:30.808Z,6.59
2023-03-06T10:54:30.977Z,6.25
2023-03-06T10:55:30.825Z,6.43
2023-03-06T10:56:30.893Z,6.36
2023-03-06T10:57:30.955Z,6.52
2023-03-06T10:58:31.013Z,6.72
2023-03-06T10:59:31.017Z,6.69
2023-03-06T11:00:31.119Z,6.52
2023-03-06T11:01:31.100Z,6.40
2023-03-06T11:02:31.105Z,6.42
2023-03-06T11:03:31.193Z,6.52
2023-03-06T11:04:31.262Z,6.07
2023-03-06T11:06:31.235Z,6.58
2023-03-06T11:07:31.283Z,6.59
2023-03-06T11:08:31.288Z,6.63
2023-03-06T11:09:31.324Z,5.90
2023-03-06T11:10:31.404Z,6.17
2023-03-06T11:11:37.518Z,5.77
2023-03-06T11:12:32.393Z,5.77
2023-03-06T11:13:31.390Z,5.81
2023-03-06T11:14:31.591Z,5.95
2023-03-06T11:15:31.361Z,6.17
2023-03-06T11:16:31.454Z,6.36
2023-03-06T11:17:31.385Z,6.12
2023-03-06T11:18:31.435Z,5.78
2023-03-06T11:19:31.320Z,5.54
2023-03-06T11:20:44.652Z,6.15
2023-03-06T11:21:32.345Z,6.15
2023-03-06T11:22:31.315Z,5.72
2023-03-06T11:23:31.330Z,5.58
2023-03-06T11:24:31.463Z,5.22
2023-03-06T11:25:31.288Z,5.81
2023-03-06T11:26:31.445Z,5.78
2023-03-06T11:27:31.380Z,5.49
2023-03-06T11:28:31.297Z,5.16
2023-03-06T11:29:33.060Z,5.27
2023-03-06T11:30:31.258Z,5.77
2023-03-06T11:31:31.557Z,5.58
2023-03-06T11:32:31.282Z,5.83
2023-03-06T11:33:31.240Z,5.57
2023-03-06T11:34:31.458Z,5.68
2023-03-06T11:35:31.332Z,5.74
2023-03-06T11:36:31.201Z,5.17
2023-03-06T11:37:31.207Z,4.93
2023-03-06T11:38:31.229Z,2.14
2023-03-06T11:39:31.495Z,0.67
2023-03-06T11:40:31.256Z,1.66
2023-03-06T11:41:31.206Z,1.89
2023-03-06T11:42:31.258Z,3.34
2023-03-06T11:43:31.216Z,2.82
2023-03-06T11:44:31.503Z,2.44
2023-03-06T11:45:31.160Z,2.58
2023-03-06T11:46:31.222Z,1.56
2023-03-06T11:47:31.153Z,2.23
2023-03-06T11:48:31.150Z,2.09
2023-03-06T11:49:31.459Z,1.65
2023-03-06T11:50:31.165Z,1.58
2023-03-06T11:51:31.112Z,1.45
2023-03-06T11:52:31.148Z,1.29
2023-03-06T11:53:31.185Z,0.46
2023-03-06T11:54:31.528Z,0.41
2023-03-06T11:55:31.088Z,0.49
2023-03-06T11:56:31.779Z,0.80
2023-03-06T11:57:31.116Z,0.74
2023-03-06T11:58:31.061Z,0.43
2023-03-06T11:59:31.062Z,0.34
2023-03-06T12:00:31.072Z,0.34
2023-03-06T12:01:31.038Z,0.34
2023-03-06T12:02:31.077Z,0.57
2023-03-06T12:03:31.056Z,0.62
2023-03-06T12:04:31.019Z,0.34
2023-03-06T12:05:31.544Z,0.34
2023-03-06T12:06:31.000Z,0.57
2023-03-06T12:07:31.010Z,0.63
2023-03-06T12:08:31.014Z,1.13
2023-03-06T12:09:31.023Z,0.57
2023-03-06T12:10:31.054Z,0.34
2023-03-06T12:11:33.157Z,0.66
2023-03-06T12:12:30.989Z,0.94
2023-03-06T12:13:30.989Z,0.73
2023-03-06T12:14:31.066Z,0.45
2023-03-06T12:15:31.536Z,0.93
2023-03-06T12:16:31.277Z,1.44
2023-03-06T12:17:31.194Z,1.32
2023-03-06T12:18:31.236Z,0.60
2023-03-06T12:19:31.268Z,0.62
2023-03-06T12:20:31.505Z,0.70
2023-03-06T12:21:31.967Z,1.20
2023-03-06T12:22:31.424Z,1.51
2023-03-06T12:23:31.416Z,2.00
2023-03-06T12:24:31.368Z,1.47
2023-03-06T12:25:31.507Z,0.44
2023-03-06T12:26:31.449Z,0.82
2023-03-06T12:27:31.491Z,1.52
2023-03-06T12:28:31.584Z,2.66
2023-03-06T12:29:31.535Z,9.37
2023-03-06T12:30:31.996Z,11.59
2023-03-06T12:31:31.603Z,12.60
2023-03-06T12:32:31.632Z,11.63
2023-03-06T12:33:31.643Z,12.98
2023-03-06T12:34:31.680Z,13.00
2023-03-06T12:35:32.042Z,14.05
2023-03-06T12:36:31.837Z,15.14
2023-03-06T12:37:31.857Z,15.33
2023-03-06T12:38:31.881Z,16.23
2023-03-06T12:39:31.899Z,16.38
2023-03-06T12:40:32.024Z,16.43
2023-03-06T12:41:31.968Z,17.40
2023-03-06T12:42:31.968Z,17.05
2023-03-06T12:43:31.993Z,16.89
2023-03-06T12:44:32.024Z,17.58
2023-03-06T12:45:31.986Z,17.98
2023-03-06T12:46:32.003Z,18.48
2023-03-06T12:47:32.081Z,17.70
2023-03-06T12:48:32.185Z,18.37
2023-03-06T12:49:33.311Z,18.56
2023-03-06T12:50:32.316Z,18.83
2023-03-06T12:51:32.266Z,18.94
2023-03-06T12:52:32.306Z,18.58
2023-03-06T12:53:32.361Z,19.01
2023-03-06T12:54:32.274Z,18.88
2023-03-06T12:55:32.293Z,19.04
2023-03-06T12:56:32.243Z,18.82
2023-03-06T12:57:32.282Z,18.66
2023-03-06T12:58:32.274Z,19.17
2023-03-06T12:59:32.261Z,18.79
2023-03-06T13:00:32.321Z,18.88
2023-03-06T13:01:32.369Z,19.29
2023-03-06T13:02:32.356Z,18.98
2023-03-06T13:03:32.285Z,19.14
2023-03-06T13:04:32.343Z,18.59
2023-03-06T13:05:32.443Z,19.28
2023-03-06T13:06:36.455Z,19.38
2023-03-06T13:07:33.511Z,19.41
2023-03-06T13:08:32.521Z,19.48
2023-03-06T13:09:32.533Z,19.51
2023-03-06T13:10:32.483Z,19.29
2023-03-06T13:11:32.446Z,19.77
2023-03-06T13:12:32.460Z,19.59
2023-03-06T13:13:32.462Z,19.09
2023-03-06T13:14:34.294Z,19.38
2023-03-06T13:15:32.429Z,19.58
2023-03-06T13:16:32.494Z,19.45
2023-03-06T13:17:32.436Z,19.29
2023-03-06T13:18:32.431Z,18.70
2023-03-06T13:19:32.437Z,18.96
2023-03-06T13:20:34.869Z,18.50
2023-03-06T13:21:32.615Z,18.52
2023-03-06T13:22:32.694Z,18.60
2023-03-06T13:23:32.704Z,18.82
2023-03-06T13:24:32.789Z,18.94
2023-03-06T13:25:32.905Z,18.80
2023-03-06T13:26:32.903Z,18.91
2023-03-06T13:27:32.960Z,18.70
2023-03-06T13:28:33.007Z,18.22
2023-03-06T13:29:33.059Z,18.44
2023-03-06T13:30:33.145Z,18.48
2023-03-06T13:31:33.255Z,18.72
2023-03-06T13:32:33.322Z,18.29
2023-03-06T13:33:33.248Z,17.96
2023-03-06T13:34:33.320Z,18.38
2023-03-06T13:35:33.434Z,18.34
2023-03-06T13:36:33.424Z,18.19
2023-03-06T13:37:33.445Z,17.94
2023-03-06T13:38:33.500Z,17.83
2023-03-06T13:39:33.539Z,17.78
2023-03-06T13:40:33.683Z,17.65
2023-03-06T13:41:33.649Z,17.30
2023-03-06T13:42:33.690Z,17.37
2023-03-06T13:43:33.724Z,17.50
2023-03-06T13:44:33.829Z,17.53
2023-03-06T13:45:33.809Z,17.71
2023-03-06T13:46:33.856Z,17.32
2023-03-06T13:47:39.191Z,16.99
2023-03-06T13:48:44.235Z,17.03
2023-03-06T13:49:34.842Z,17.03
2023-03-06T13:50:33.911Z,17.12
2023-03-06T13:53:33.829Z,17.00
2023-03-06T13:54:33.824Z,17.08
2023-03-06T13:55:33.838Z,16.61
2023-03-06T13:56:33.811Z,16.85
2023-03-06T13:57:33.821Z,16.55
2023-03-06T13:58:33.797Z,16.63
2023-03-06T13:59:33.802Z,16.10
2023-03-06T14:00:33.807Z,16.07
2023-03-06T14:01:33.927Z,15.45
2023-03-06T14:02:33.814Z,15.02
2023-03-06T14:03:33.860Z,14.57
2023-03-06T14:04:33.736Z,13.96
2023-03-06T14:05:35.619Z,14.29
2023-03-06T14:06:33.763Z,13.48
2023-03-06T14:07:33.699Z,13.86
2023-03-06T14:08:33.750Z,16.67
2023-03-06T14:09:33.742Z,21.49
2023-03-06T14:10:33.720Z,25.34
2023-03-06T14:11:33.699Z,27.21
2023-03-06T14:12:33.714Z,27.57
2023-03-06T14:13:45.319Z,30.36
2023-03-06T14:14:34.739Z,30.67
2023-03-06T14:15:33.673Z,32.79
2023-03-06T14:16:48.634Z,34.39
2023-03-06T14:17:34.714Z,30.90
2023-03-06T14:18:33.662Z,32.37
2023-03-06T14:19:33.655Z,34.83
2023-03-06T14:20:33.679Z,41.92
2023-03-06T14:21:33.648Z,48.23
2023-03-06T14:22:33.643Z,52.96
2023-03-06T14:23:33.636Z,54.63
2023-03-06T14:24:33.594Z,51.09
2023-03-06T14:25:33.608Z,55.75
2023-03-06T14:26:33.600Z,51.36
2023-03-06T14:27:33.620Z,55.20
2023-03-06T14:28:33.612Z,52.37
2023-03-06T14:29:33.563Z,53.42
2023-03-06T14:30:33.651Z,50.10
2023-03-06T14:31:33.715Z,49.69
2023-03-06T14:32:33.602Z,52.88
2023-03-06T14:33:33.567Z,50.74
2023-03-06T14:34:33.605Z,50.11
2023-03-06T14:35:33.615Z,50.32
2023-03-06T14:36:33.597Z,48.78
2023-03-06T14:37:33.623Z,47.39
2023-03-06T14:38:33.622Z,47.65
2023-03-06T14:39:33.690Z,45.75
2023-03-06T14:40:33.842Z,44.65
2023-03-06T14:41:33.912Z,43.55
2023-03-06T14:42:33.910Z,41.99
2023-03-06T14:43:33.945Z,41.35
2023-03-06T14:44:33.963Z,40.12
2023-03-06T14:45:33.950Z,38.76
2023-03-06T14:46:33.999Z,36.88
2023-03-06T14:47:34.102Z,35.97
2023-03-06T14:48:34.119Z,35.24
2023-03-06T14:49:34.120Z,34.84
2023-03-06T14:50:34.123Z,33.82
2023-03-06T14:51:34.139Z,32.55
2023-03-06T14:52:34.141Z,32.44
2023-03-06T14:53:34.210Z,32.22
2023-03-06T14:54:34.228Z,29.95
2023-03-06T14:55:34.227Z,29.51
2023-03-06T14:56:34.223Z,28.99
2023-03-06T14:57:34.236Z,28.63
2023-03-06T14:58:34.228Z,28.12
2023-03-06T14:59:34.344Z,27.09
2023-03-06T15:00:34.373Z,26.96
2023-03-06T15:01:34.414Z,26.20
2023-03-06T15:02:34.410Z,26.12
2023-03-06T15:03:34.372Z,25.17
2023-03-06T15:04:34.381Z,25.16
2023-03-06T15:05:34.474Z,24.77
2023-03-06T15:06:34.547Z,24.26
2023-03-06T15:07:34.569Z,23.84
2023-03-06T15:08:34.559Z,23.38
2023-03-06T15:09:34.571Z,22.97
2023-03-06T15:10:34.671Z,22.66
2023-03-06T15:11:34.632Z,22.40
2023-03-06T15:12:34.690Z,22.41
2023-03-06T15:13:34.813Z,21.84
2023-03-06T15:14:34.846Z,21.36
2023-03-06T15:15:34.815Z,20.75
2023-03-06T15:16:34.844Z,21.14
2023-03-06T15:17:34.881Z,20.72
2023-03-06T15:18:34.885Z,20.41
2023-03-06T15:19:34.890Z,20.33
2023-03-06T15:20:34.949Z,20.19
2023-03-06T15:21:34.920Z,19.94
2023-03-06T15:22:34.964Z,19.56
2023-03-06T15:23:34.957Z,19.29
2023-03-06T15:24:34.970Z,19.14
2023-03-06T15:25:35.035Z,18.75
2023-03-06T15:26:35.009Z,18.48
2023-03-06T15:27:35.060Z,18.09
2023-03-06T15:28:35.052Z,18.08
2023-03-06T15:29:35.095Z,17.69
2023-03-06T15:30:35.640Z,17.70
2023-03-06T15:31:35.259Z,17.52
2023-03-06T15:32:35.316Z,17.32
2023-03-06T15:33:35.252Z,17.15
2023-03-06T15:34:35.325Z,16.93
2023-03-06T15:35:37.761Z,16.65
2023-03-06T15:36:35.256Z,16.55
2023-03-06T15:37:35.273Z,16.83
2023-03-06T15:38:35.265Z,16.23
2023-03-06T15:39:36.008Z,15.97
2023-03-06T15:40:35.240Z,16.05
2023-03-06T15:41:35.251Z,15.62
2023-03-06T15:42:35.215Z,15.57
2023-03-06T15:43:35.214Z,15.49
2023-03-06T15:44:35.198Z,15.24
2023-03-06T15:45:35.259Z,15.11
2023-03-06T15:46:35.222Z,14.89
2023-03-06T15:47:35.164Z,14.89
2023-03-06T15:48:35.214Z,14.86
2023-03-06T15:49:35.179Z,14.68
2023-03-06T15:50:35.162Z,14.57
2023-03-06T15:51:35.182Z,14.44
2023-03-06T15:52:35.169Z,14.40
2023-03-06T15:53:35.132Z,14.27
2023-03-06T15:54:35.142Z,14.08
2023-03-06T15:55:35.144Z,13.87
2023-03-06T15:56:35.156Z,13.92
2023-03-06T15:57:35.158Z,13.78
2023-03-06T15:58:35.116Z,13.67
2023-03-06T15:59:35.116Z,13.43
2023-03-06T16:00:35.081Z,13.37
2023-03-06T16:01:37.175Z,13.19
2023-03-06T16:02:35.091Z,13.44
2023-03-06T16:03:35.077Z,13.35
2023-03-06T16:04:35.151Z,13.11
2023-03-06T16:05:35.074Z,13.02
2023-03-06T16:06:35.066Z,13.00
2023-03-06T16:07:35.070Z,12.95
2023-03-06T16:08:35.050Z,12.85
2023-03-06T16:09:35.033Z,12.94
2023-03-06T16:10:35.043Z,12.72
2023-03-06T16:11:43.399Z,12.54
2023-03-06T16:12:36.090Z,12.57
2023-03-06T16:13:35.063Z,12.58
2023-03-06T16:14:35.078Z,12.60
2023-03-06T16:15:35.081Z,12.39
2023-03-06T16:16:35.145Z,12.46
2023-03-06T16:17:35.048Z,12.42
2023-03-06T16:18:35.045Z,12.19
2023-03-06T16:19:35.031Z,12.31
2023-03-06T16:20:35.003Z,12.26
2023-03-06T16:21:35.023Z,12.35
2023-03-06T16:22:35.022Z,12.02
2023-03-06T16:23:35.034Z,11.97
2023-03-06T16:24:34.989Z,11.80
2023-03-06T16:25:34.978Z,11.74
2023-03-06T16:26:34.952Z,11.76
2023-03-06T16:27:34.948Z,11.63
2023-03-06T16:28:34.968Z,11.72
2023-03-06T16:29:35.045Z,11.49
2023-03-06T16:30:35.021Z,11.38
2023-03-06T16:31:35.088Z,11.33
2023-03-06T16:32:35.097Z,11.17
2023-03-06T16:33:35.114Z,11.14
2023-03-06T16:34:35.164Z,11.20
2023-03-06T16:35:35.280Z,10.95
2023-03-06T16:36:35.210Z,10.96
2023-03-06T16:37:35.271Z,11.06
2023-03-06T16:38:35.287Z,10.85
2023-03-06T16:39:35.301Z,10.91
2023-03-06T16:40:35.394Z,10.81
2023-03-06T16:41:35.424Z,10.80
2023-03-06T16:42:35.451Z,10.80
2023-03-06T16:43:35.485Z,10.56
2023-03-06T16:44:35.518Z,10.60
2023-03-06T16:45:35.560Z,10.46
2023-03-06T16:46:35.595Z,10.46
2023-03-06T16:47:35.647Z,10.44
2023-03-06T16:48:35.660Z,10.31
2023-03-06T16:49:35.732Z,10.22
2023-03-06T16:50:35.771Z,10.24
2023-03-06T16:51:35.787Z,10.20
2023-03-06T16:52:35.842Z,10.16
2023-03-06T16:53:35.894Z,10.04
2023-03-06T16:54:35.916Z,10.00
2023-03-06T16:55:35.941Z,10.05
2023-03-06T16:56:35.979Z,9.85
2023-03-06T16:57:36.018Z,9.83
2023-03-06T16:58:36.058Z,9.95
2023-03-06T16:59:36.141Z,9.92
2023-03-06T17:00:36.176Z,9.85